Time;durP1;ratioP1;P1;durP2;ratioP2;P2;SDS_P1;SDS_P2;PMS_P1;PMS_P2;Temp;Humidity;BMP_temperature;BMP_pressure;BME280_temperature;BME280_humidity;BME280_pressure;Samples;Min_cycle;Max_cycle;Signal;HPM_P1;HPM_P2
2022/07/06 00:00:46;;;;;;;2.57;2.37;;;17.90;99.90;;;;;;5087234;28;20469;-69
2022/07/06 00:03:12;;;;;;;2.97;2.30;;;17.80;99.90;;;;;;5087775;28;20466;-69
2022/07/06 00:05:39;;;;;;;3.30;2.97;;;17.80;99.90;;;;;;5087606;28;20478;-70
2022/07/06 00:08:06;;;;;;;3.10;2.50;;;17.80;99.90;;;;;;5087684;28;20466;-69
2022/07/06 00:10:32;;;;;;;2.67;2.40;;;17.80;99.90;;;;;;5087307;28;20468;-69
2022/07/06 00:12:59;;;;;;;3.10;2.80;;;17.80;99.90;;;;;;5087638;28;20473;-67
2022/07/06 00:15:27;;;;;;;6.37;2.57;;;17.70;99.90;;;;;;5087644;28;20486;-69
2022/07/06 00:17:54;;;;;;;4.90;2.50;;;17.70;99.90;;;;;;5087723;28;20468;-68
2022/07/06 00:20:21;;;;;;;4.17;2.40;;;17.70;99.90;;;;;;5087337;28;20832;-69
2022/07/06 00:22:47;;;;;;;4.20;2.90;;;17.60;99.90;;;;;;5087431;28;20968;-69
2022/07/06 00:25:14;;;;;;;3.03;2.73;;;17.60;99.90;;;;;;5086446;28;21015;-68
2022/07/06 00:27:41;;;;;;;2.10;2.00;;;17.60;99.90;;;;;;5087263;28;20837;-69
2022/07/06 00:30:08;;;;;;;2.93;2.40;;;17.60;99.90;;;;;;5086896;28;20457;-70
2022/07/06 00:32:36;;;;;;;2.67;2.47;;;17.50;99.90;;;;;;5087450;28;20873;-70
2022/07/06 00:35:04;;;;;;;2.73;2.53;;;17.60;99.90;;;;;;5087382;28;20489;-69
2022/07/06 00:37:30;;;;;;;2.60;2.40;;;17.50;99.90;;;;;;5087432;28;20466;-68
2022/07/06 00:39:57;;;;;;;3.90;2.40;;;17.50;99.90;;;;;;5086769;28;20961;-69
2022/07/06 00:42:25;;;;;;;3.50;2.80;;;17.50;99.90;;;;;;5167842;22;20481;-71
2022/07/06 00:44:51;;;;;;;3.07;2.77;;;17.50;99.90;;;;;;5109318;28;20464;-71
2022/07/06 00:47:18;;;;;;;4.47;2.70;;;17.40;99.90;;;;;;5114609;28;20460;-71
2022/07/06 00:52:30;;;;;;;3.13;2.60;;;17.40;99.90;;;;;;5114837;28;20478;-72
2022/07/06 00:54:58;;;;;;;2.70;2.33;;;17.30;99.90;;;;;;5114543;28;20492;-71
2022/07/06 00:57:24;;;;;;;2.40;2.20;;;17.30;99.90;;;;;;5114474;28;20467;-71
2022/07/06 00:59:51;;;;;;;3.07;2.77;;;17.30;99.90;;;;;;5114790;28;20460;-71
2022/07/06 01:02:18;;;;;;;2.93;2.63;;;17.20;99.90;;;;;;5114031;28;20909;-71
2022/07/06 01:04:46;;;;;;;5.03;2.97;;;17.20;99.90;;;;;;5116640;28;20483;-71
2022/07/06 01:07:12;;;;;;;6.80;2.57;;;17.20;99.90;;;;;;5117147;28;20453;-71
2022/07/06 01:09:40;;;;;;;5.57;2.70;;;17.10;99.90;;;;;;5115987;28;20464;-71
2022/07/06 01:12:08;;;;;;;3.03;2.43;;;17.10;99.90;;;;;;5116886;28;20457;-71
2022/07/06 01:14:36;;;;;;;2.53;2.33;;;17.10;99.90;;;;;;5116585;28;20480;-71
2022/07/06 01:17:03;;;;;;;2.60;2.40;;;17.10;99.90;;;;;;5116816;28;20456;-72
2022/07/06 01:19:30;;;;;;;2.57;2.37;;;17.00;99.90;;;;;;5115771;28;20467;-71
2022/07/06 01:21:59;;;;;;;2.57;2.37;;;17.00;99.90;;;;;;5116863;28;20460;-72
2022/07/06 01:24:26;;;;;;;3.20;2.53;;;17.00;99.90;;;;;;5116493;28;20481;-72
2022/07/06 01:26:54;;;;;;;4.30;2.53;;;17.00;99.90;;;;;;5116857;28;20493;-71
2022/07/06 01:29:20;;;;;;;2.53;2.33;;;17.00;99.90;;;;;;5115261;28;20943;-72
2022/07/06 01:31:48;;;;;;;3.47;2.33;;;16.90;99.90;;;;;;5116395;28;20456;-71
2022/07/06 01:34:16;;;;;;;2.30;2.20;;;16.90;99.90;;;;;;5115773;28;20920;-72
2022/07/06 01:36:43;;;;;;;2.73;2.20;;;16.90;99.90;;;;;;5116338;28;20461;-72
2022/07/06 01:39:12;;;;;;;2.90;2.47;;;16.90;99.90;;;;;;5115675;28;20465;-72
2022/07/06 01:41:39;;;;;;;4.30;2.77;;;16.80;99.90;;;;;;5115707;28;20521;-72
2022/07/06 01:44:06;;;;;;;2.90;2.60;;;16.80;99.90;;;;;;5116005;28;20480;-72
2022/07/06 01:46:33;;;;;;;2.73;2.53;;;16.80;99.90;;;;;;5116107;28;20836;-71
2022/07/06 01:49:00;;;;;;;3.73;2.80;;;16.70;99.90;;;;;;5116095;28;20484;-72
2022/07/06 01:51:27;;;;;;;3.20;2.00;;;16.80;99.90;;;;;;5115922;28;20536;-72
2022/07/06 01:53:54;;;;;;;3.90;2.70;;;16.80;99.90;;;;;;5117371;28;20452;-72
2022/07/06 01:56:22;;;;;;;2.83;2.63;;;16.80;99.90;;;;;;5116456;28;20476;-71
2022/07/06 01:58:49;;;;;;;3.10;2.30;;;16.70;99.90;;;;;;5116091;28;20457;-71
2022/07/06 02:01:18;;;;;;;4.57;2.80;;;16.70;99.90;;;;;;5115364;28;20460;-71
2022/07/06 02:03:45;;;;;;;2.40;2.20;;;16.70;99.90;;;;;;5115358;28;20457;-71
2022/07/06 02:06:13;;;;;;;3.87;2.80;;;16.70;99.90;;;;;;5114588;28;20452;-71
2022/07/06 02:08:40;;;;;;;5.67;2.40;;;16.60;99.90;;;;;;5114941;28;20552;-71
2022/07/06 02:11:08;;;;;;;2.47;2.20;;;16.60;99.90;;;;;;5114153;28;20463;-72
2022/07/06 02:13:37;;;;;;;3.30;2.50;;;16.60;99.90;;;;;;5114196;28;20550;-71
2022/07/06 02:16:04;;;;;;;3.13;2.23;;;16.60;99.90;;;;;;5114310;28;20493;-71
2022/07/06 02:18:31;;;;;;;3.03;2.67;;;16.60;99.90;;;;;;5114670;28;20460;-71
2022/07/06 02:20:58;;;;;;;3.87;2.40;;;16.60;99.90;;;;;;5113797;28;20517;-72
2022/07/06 02:23:25;;;;;;;2.30;2.10;;;16.60;99.90;;;;;;5114429;28;20551;-71
2022/07/06 02:25:53;;;;;;;4.27;3.20;;;16.50;99.90;;;;;;5114661;28;20851;-71
2022/07/06 02:28:19;;;;;;;2.40;2.20;;;16.50;99.90;;;;;;5114546;28;20499;-71
2022/07/06 02:30:48;;;;;;;4.10;2.80;;;16.40;99.90;;;;;;5113658;28;20568;-71
2022/07/06 02:33:14;;;;;;;7.83;2.60;;;16.30;99.90;;;;;;5113743;28;20486;-71
2022/07/06 02:35:42;;;;;;;2.47;2.27;;;16.30;99.90;;;;;;5114717;28;20496;-71
2022/07/06 02:38:10;;;;;;;3.00;2.30;;;16.30;99.90;;;;;;5113805;28;20517;-71
2022/07/06 02:40:36;;;;;;;5.30;2.63;;;16.20;99.90;;;;;;5113471;28;20456;-71
2022/07/06 02:43:03;;;;;;;2.47;2.27;;;16.20;99.90;;;;;;5113517;28;20464;-71
2022/07/06 02:45:30;;;;;;;2.87;2.63;;;16.20;99.90;;;;;;5113755;28;20476;-71
2022/07/06 02:47:58;;;;;;;3.40;2.57;;;16.10;99.90;;;;;;5113706;28;20500;-71
2022/07/06 02:50:25;;;;;;;3.10;2.50;;;16.10;99.90;;;;;;5113103;28;20484;-71
2022/07/06 02:52:52;;;;;;;3.43;2.50;;;16.00;99.90;;;;;;5113758;28;20985;-71
2022/07/06 02:55:19;;;;;;;5.63;2.80;;;15.90;99.90;;;;;;5113199;28;20520;-71
2022/07/06 02:57:46;;;;;;;3.17;2.50;;;15.90;99.90;;;;;;5113985;28;20467;-71
2022/07/06 03:00:13;;;;;;;2.70;2.50;;;15.80;99.90;;;;;;5112740;28;20495;-71
2022/07/06 03:02:40;;;;;;;3.57;2.70;;;15.80;99.90;;;;;;5113932;28;20518;-71
2022/07/06 03:05:09;;;;;;;2.50;2.30;;;15.70;99.90;;;;;;5113142;28;20532;-71
2022/07/06 03:07:36;;;;;;;4.57;2.70;;;15.70;99.90;;;;;;5113520;28;20873;-71
2022/07/06 03:10:03;;;;;;;3.60;2.50;;;15.60;99.90;;;;;;5112845;28;20457;-71
2022/07/06 03:12:30;;;;;;;3.80;2.80;;;15.50;99.90;;;;;;5114168;28;20555;-71
2022/07/06 03:14:56;;;;;;;5.70;3.03;;;15.50;99.90;;;;;;5114056;28;20484;-71
2022/07/06 03:17:23;;;;;;;2.67;2.47;;;15.50;99.90;;;;;;5114494;28;20468;-71
2022/07/06 03:19:50;;;;;;;3.23;2.57;;;15.50;99.90;;;;;;5112508;28;20963;-72
2022/07/06 03:22:18;;;;;;;2.50;2.30;;;15.50;99.90;;;;;;5112917;28;20881;-71
2022/07/06 03:24:45;;;;;;;2.80;2.50;;;15.50;99.90;;;;;;5113524;28;20481;-71
2022/07/06 03:27:11;;;;;;;2.80;2.60;;;15.50;99.90;;;;;;5111854;28;20456;-72
2022/07/06 03:29:38;;;;;;;4.77;3.00;;;15.50;99.90;;;;;;5112768;28;20463;-71
2022/07/06 03:32:05;;;;;;;2.53;2.33;;;15.50;99.90;;;;;;5113688;28;20947;-71
2022/07/06 03:34:32;;;;;;;3.13;2.83;;;15.50;99.90;;;;;;5104960;28;20480;-71
2022/07/06 03:36:59;;;;;;;2.70;2.50;;;15.50;99.90;;;;;;5103141;28;20488;-71
2022/07/06 03:39:27;;;;;;;3.30;2.57;;;15.50;99.90;;;;;;5102985;28;20457;-72
2022/07/06 03:41:53;;;;;;;3.10;2.90;;;15.50;99.90;;;;;;5103218;28;20472;-71
2022/07/06 03:44:20;;;;;;;3.30;3.00;;;15.50;99.90;;;;;;5104772;28;20473;-71
2022/07/06 03:46:47;;;;;;;3.00;2.70;;;15.50;99.90;;;;;;5104328;28;20461;-71
2022/07/06 03:49:14;;;;;;;2.93;2.63;;;15.40;99.90;;;;;;5104073;28;20895;-71
2022/07/06 03:51:40;;;;;;;3.47;2.93;;;15.50;99.90;;;;;;5105623;28;20448;-71
2022/07/06 03:54:07;;;;;;;3.53;2.40;;;15.40;99.90;;;;;;5102121;28;20831;-71
2022/07/06 03:56:38;;;;;;;4.50;3.20;;;15.40;99.90;;;;;;5112275;28;20480;-72
2022/07/06 03:59:05;;;;;;;8.47;3.40;;;15.40;99.90;;;;;;5115496;28;20467;-72
2022/07/06 04:01:32;;;;;;;3.30;3.00;;;15.40;99.90;;;;;;5108906;28;20453;-72
2022/07/06 04:03:58;;;;;;;3.50;3.20;;;15.40;99.90;;;;;;5104051;28;20460;-72
2022/07/06 04:06:26;;;;;;;3.90;3.40;;;15.40;99.90;;;;;;5104747;28;20449;-72
2022/07/06 04:08:52;;;;;;;3.43;3.13;;;15.40;99.90;;;;;;5103909;28;20458;-73
2022/07/06 04:11:19;;;;;;;3.43;3.13;;;15.40;99.90;;;;;;5105064;28;20454;-73
2022/07/06 04:13:47;;;;;;;3.50;3.10;;;15.40;99.90;;;;;;5103058;28;20456;-72
2022/07/06 04:16:14;;;;;;;3.97;3.07;;;15.40;99.90;;;;;;5103565;28;20586;-73
2022/07/06 04:18:41;;;;;;;3.20;2.90;;;15.40;99.90;;;;;;5104612;28;20456;-72
2022/07/06 04:21:08;;;;;;;3.63;3.10;;;15.40;99.90;;;;;;5104604;28;20453;-72
2022/07/06 04:23:34;;;;;;;4.07;3.17;;;15.40;99.90;;;;;;5103958;28;20454;-72
2022/07/06 04:26:01;;;;;;;4.03;3.63;;;15.40;99.90;;;;;;5106159;28;20981;-73
2022/07/06 04:28:28;;;;;;;3.80;3.00;;;15.40;99.90;;;;;;5114274;28;21044;-72
2022/07/06 04:30:56;;;;;;;4.37;3.20;;;15.40;99.90;;;;;;5115606;28;20460;-72
2022/07/06 04:33:22;;;;;;;6.23;3.47;;;15.40;99.90;;;;;;5115268;28;20459;-72
2022/07/06 04:35:49;;;;;;;4.47;3.60;;;15.40;99.90;;;;;;5115681;28;20855;-72
2022/07/06 04:38:16;;;;;;;4.70;3.67;;;15.40;99.90;;;;;;5118873;28;20461;-72
2022/07/06 04:40:42;;;;;;;4.27;3.90;;;15.40;99.90;;;;;;5119516;28;21125;-72
2022/07/06 04:43:09;;;;;;;4.70;3.53;;;15.40;99.90;;;;;;5119079;28;20468;-72
2022/07/06 04:45:36;;;;;;;4.33;3.57;;;15.40;99.90;;;;;;5118732;28;20472;-72
2022/07/06 04:48:05;;;;;;;4.50;3.70;;;15.40;99.90;;;;;;5118659;28;20460;-73
2022/07/06 04:50:32;;;;;;;3.63;3.33;;;15.40;99.90;;;;;;5117763;28;20804;-72
2022/07/06 04:52:59;;;;;;;4.03;3.60;;;15.40;99.90;;;;;;5118567;28;20456;-72
2022/07/06 04:55:26;;;;;;;4.23;3.83;;;15.40;99.90;;;;;;5118055;28;20476;-73
2022/07/06 04:57:53;;;;;;;4.83;3.97;;;15.40;99.90;;;;;;5118147;28;20457;-73
2022/07/06 05:00:20;;;;;;;4.67;3.90;;;15.40;99.90;;;;;;5117983;28;20459;-72
2022/07/06 05:02:47;;;;;;;4.27;3.80;;;15.50;99.90;;;;;;5119100;28;20464;-72
2022/07/06 05:05:15;;;;;;;4.20;3.80;;;15.50;99.90;;;;;;5118280;28;20990;-73
2022/07/06 05:07:41;;;;;;;4.10;3.80;;;15.50;99.90;;;;;;5118723;28;20449;-72
2022/07/06 05:10:10;;;;;;;4.43;4.03;;;15.50;99.90;;;;;;5117720;28;20461;-72
2022/07/06 05:12:36;;;;;;;3.83;3.53;;;15.60;99.90;;;;;;5119302;28;20456;-73
2022/07/06 05:15:04;;;;;;;4.83;4.00;;;15.60;99.90;;;;;;5119689;28;20480;-72
2022/07/06 05:17:31;;;;;;;5.23;4.73;;;15.60;99.90;;;;;;5119541;28;20571;-72
2022/07/06 05:19:58;;;;;;;4.33;3.93;;;15.60;99.90;;;;;;5118978;28;20464;-72
2022/07/06 05:22:26;;;;;;;5.20;3.67;;;15.70;99.90;;;;;;5121214;28;20464;-72
2022/07/06 05:24:53;;;;;;;4.43;3.80;;;15.70;99.90;;;;;;5120984;28;20477;-72
2022/07/06 05:27:20;;;;;;;5.60;4.03;;;15.70;99.90;;;;;;5120080;28;20456;-72
2022/07/06 05:29:46;;;;;;;7.73;4.43;;;15.70;99.90;;;;;;5117277;28;20539;-72
2022/07/06 05:32:13;;;;;;;3.90;3.50;;;15.70;99.90;;;;;;5109739;28;20461;-71
2022/07/06 05:34:40;;;;;;;4.60;3.83;;;15.80;99.90;;;;;;5110543;28;20476;-72
2022/07/06 05:37:06;;;;;;;5.77;3.97;;;15.80;99.90;;;;;;5119173;28;20484;-71
2022/07/06 05:39:35;;;;;;;8.07;4.23;;;15.90;99.90;;;;;;5119053;28;20464;-71
2022/07/06 05:42:01;;;;;;;4.33;3.70;;;15.90;99.90;;;;;;5120895;28;20469;-72
2022/07/06 05:44:28;;;;;;;8.27;3.90;;;16.00;99.90;;;;;;5121551;28;20480;-71
2022/07/06 05:50:11;;;;;;;4.80;3.80;;;16.00;99.90;;;;;;5119177;28;20457;-72
2022/07/06 05:52:25;;;;;;;4.87;3.67;;;16.10;99.90;;;;;;5118535;28;20448;-72
2022/07/06 05:54:53;;;;;;;3.90;3.60;;;16.10;99.90;;;;;;5118013;28;20476;-72
2022/07/06 05:57:20;;;;;;;4.80;3.27;;;16.10;99.90;;;;;;5117050;28;20477;-71
2022/07/06 05:59:47;;;;;;;4.20;3.83;;;16.20;99.90;;;;;;5113655;28;20456;-71
2022/07/06 06:02:14;;;;;;;3.90;3.50;;;16.30;99.90;;;;;;5113817;28;20975;-72
2022/07/06 06:04:41;;;;;;;4.20;3.23;;;16.30;99.90;;;;;;5114004;28;20484;-72
2022/07/06 06:07:07;;;;;;;5.60;3.30;;;16.40;99.90;;;;;;5114228;28;20457;-71
2022/07/06 06:09:34;;;;;;;3.57;3.27;;;16.40;99.90;;;;;;5113425;28;20896;-72
2022/07/06 06:12:02;;;;;;;3.27;3.00;;;16.50;99.90;;;;;;5113676;28;20835;-70
2022/07/06 06:14:29;;;;;;;3.53;3.00;;;16.60;99.90;;;;;;5113029;28;20477;-69
2022/07/06 06:16:56;;;;;;;4.73;3.70;;;16.70;99.90;;;;;;5113389;28;20480;-69
2022/07/06 06:19:22;;;;;;;3.70;3.40;;;16.80;99.90;;;;;;5112662;28;20453;-71
2022/07/06 06:21:51;;;;;;;3.70;3.33;;;16.80;99.90;;;;;;5113390;28;20484;-70
2022/07/06 06:24:18;;;;;;;4.27;3.87;;;16.80;99.90;;;;;;5112924;28;20487;-70
2022/07/06 06:26:44;;;;;;;3.30;3.00;;;16.90;99.90;;;;;;5113186;28;20457;-70
2022/07/06 06:29:12;;;;;;;4.40;3.03;;;17.00;99.90;;;;;;5112635;28;20465;-70
2022/07/06 06:31:39;;;;;;;3.90;3.20;;;17.10;99.90;;;;;;5113064;28;20832;-70
2022/07/06 06:34:06;;;;;;;3.40;2.57;;;17.10;99.90;;;;;;5113087;28;20483;-70
2022/07/06 06:36:32;;;;;;;3.20;2.90;;;17.20;99.90;;;;;;5113284;28;20496;-69
2022/07/06 06:38:59;;;;;;;4.10;3.10;;;17.20;99.90;;;;;;5114267;28;20461;-69
2022/07/06 06:41:26;;;;;;;3.47;2.67;;;17.30;99.90;;;;;;5113083;28;20845;-70
2022/07/06 06:46:22;;;;;;;3.83;3.20;;;17.40;99.90;;;;;;5089244;28;20461;-72
2022/07/06 06:48:48;;;;;;;4.63;3.20;;;17.50;99.90;;;;;;5075800;28;20455;-72
2022/07/06 06:51:15;;;;;;;3.90;3.00;;;17.50;99.90;;;;;;5071268;28;20466;-71
2022/07/06 06:53:42;;;;;;;3.00;2.80;;;17.50;99.90;;;;;;5072017;28;20813;-72
2022/07/06 06:56:09;;;;;;;6.43;3.40;;;17.50;99.90;;;;;;5051677;28;20470;-72
2022/07/06 06:58:36;;;;;;;3.90;3.40;;;17.50;99.90;;;;;;5051545;28;20463;-72
2022/07/06 07:01:04;;;;;;;4.70;2.80;;;17.50;99.90;;;;;;5051189;28;20462;-72
2022/07/06 07:03:32;;;;;;;3.87;3.07;;;17.50;99.90;;;;;;5051693;28;20818;-72
2022/07/06 07:05:59;;;;;;;3.40;2.80;;;17.50;99.90;;;;;;5051435;28;20487;-72
2022/07/06 07:08:25;;;;;;;3.53;3.23;;;17.50;99.90;;;;;;5051703;28;20466;-72
2022/07/06 07:10:52;;;;;;;2.80;2.60;;;17.60;99.90;;;;;;5051402;28;20460;-72
2022/07/06 07:13:19;;;;;;;6.60;3.40;;;17.70;99.90;;;;;;5051601;28;20819;-72
2022/07/06 07:15:46;;;;;;;3.30;3.00;;;17.80;99.90;;;;;;5051539;28;20483;-72
2022/07/06 07:18:12;;;;;;;4.07;3.03;;;18.00;99.90;;;;;;5050398;28;20490;-72
2022/07/06 07:20:40;;;;;;;3.23;2.73;;;18.10;99.90;;;;;;5050793;28;20836;-70
2022/07/06 07:23:07;;;;;;;4.17;3.30;;;18.20;99.90;;;;;;5051671;28;20777;-71
2022/07/06 07:25:34;;;;;;;3.63;2.90;;;18.40;99.90;;;;;;5051337;28;20494;-71
2022/07/06 07:28:01;;;;;;;4.60;3.30;;;18.40;99.90;;;;;;5051143;28;20558;-71
2022/07/06 07:30:27;;;;;;;2.90;2.67;;;18.40;99.90;;;;;;5050798;28;20482;-71
2022/07/06 07:32:55;;;;;;;4.13;2.83;;;18.50;99.90;;;;;;5051180;28;20459;-71
2022/07/06 07:35:23;;;;;;;3.33;2.90;;;18.60;99.90;;;;;;5051029;28;20480;-71
2022/07/06 07:37:51;;;;;;;3.33;2.80;;;18.70;99.90;;;;;;5051134;28;20831;-71
2022/07/06 07:40:18;;;;;;;3.93;3.30;;;18.80;99.90;;;;;;5050680;28;20459;-71
2022/07/06 07:42:45;;;;;;;2.83;2.63;;;18.90;99.90;;;;;;5050969;28;20459;-71
2022/07/06 07:45:12;;;;;;;5.23;2.60;;;18.90;99.90;;;;;;5050761;28;20495;-71
2022/07/06 07:47:38;;;;;;;3.43;3.10;;;18.90;99.90;;;;;;5051110;28;20505;-71
2022/07/06 07:50:06;;;;;;;6.27;2.97;;;19.00;99.90;;;;;;5050546;28;20468;-71
2022/07/06 07:52:33;;;;;;;2.97;2.60;;;19.10;99.90;;;;;;5050980;28;20463;-70
2022/07/06 07:55:01;;;;;;;5.00;2.70;;;19.20;99.90;;;;;;5050612;28;20511;-71
2022/07/06 07:57:28;;;;;;;3.20;3.00;;;19.30;99.90;;;;;;5050842;28;20487;-71
2022/07/06 07:59:55;;;;;;;5.27;3.20;;;19.30;99.90;;;;;;5049967;28;20467;-72
2022/07/06 08:02:22;;;;;;;3.20;2.50;;;19.30;99.90;;;;;;5050464;28;20459;-72
2022/07/06 08:04:48;;;;;;;3.33;2.90;;;19.40;99.90;;;;;;5050381;28;20879;-71
2022/07/06 08:07:15;;;;;;;2.93;2.63;;;19.40;99.90;;;;;;5050803;28;20458;-72
2022/07/06 08:09:42;;;;;;;3.30;3.00;;;19.50;99.90;;;;;;5050059;28;20464;-71
2022/07/06 08:12:11;;;;;;;7.40;2.90;;;19.60;99.90;;;;;;5050479;28;20464;-70
2022/07/06 08:14:38;;;;;;;9.83;3.30;;;19.70;99.90;;;;;;5051119;28;20502;-71
2022/07/06 08:17:05;;;;;;;4.30;3.03;;;19.90;99.90;;;;;;5050759;28;21083;-71
2022/07/06 08:19:32;;;;;;;3.63;3.13;;;19.90;99.90;;;;;;5050050;28;20460;-71
2022/07/06 08:21:59;;;;;;;3.17;2.87;;;19.90;99.90;;;;;;5050124;28;20470;-71
2022/07/06 08:24:25;;;;;;;3.30;3.00;;;19.90;99.90;;;;;;5050303;28;20482;-70
2022/07/06 08:26:52;;;;;;;4.67;3.00;;;20.00;99.90;;;;;;5050316;28;20464;-71
2022/07/06 08:29:20;;;;;;;4.60;2.67;;;20.10;99.90;;;;;;5049859;28;20459;-71
2022/07/06 08:31:47;;;;;;;5.63;3.23;;;20.20;99.90;;;;;;5050360;28;20491;-72
2022/07/06 08:34:14;;;;;;;3.27;2.77;;;20.30;99.90;;;;;;5050580;28;20483;-72
2022/07/06 08:36:41;;;;;;;4.00;3.60;;;20.30;99.90;;;;;;5050056;28;20463;-71
2022/07/06 08:39:07;;;;;;;4.10;2.73;;;20.40;99.90;;;;;;5050129;28;20470;-72
2022/07/06 08:41:37;;;;;;;4.23;3.00;;;20.40;99.90;;;;;;5050203;28;20540;-72
2022/07/06 08:44:04;;;;;;;4.30;2.90;;;20.50;99.90;;;;;;5049992;28;20487;-72
2022/07/06 08:46:32;;;;;;;4.43;2.67;;;20.70;99.90;;;;;;5050457;28;20473;-71
2022/07/06 08:49:00;;;;;;;7.57;2.60;;;20.80;99.90;;;;;;5050179;28;20463;-72
2022/07/06 08:51:28;;;;;;;4.00;3.30;;;20.80;99.90;;;;;;5049849;28;21134;-72
2022/07/06 08:53:55;;;;;;;5.00;3.10;;;20.90;99.90;;;;;;5050017;28;20475;-71
2022/07/06 08:56:22;;;;;;;3.80;2.53;;;20.90;99.90;;;;;;5065594;28;20537;-71
2022/07/06 08:58:50;;;;;;;3.20;2.60;;;21.00;99.90;;;;;;5068959;28;20483;-72
2022/07/06 09:01:18;;;;;;;3.77;3.00;;;21.10;99.90;;;;;;5068450;28;20468;-71
2022/07/06 09:03:49;;;;;;;3.80;2.90;;;21.10;99.90;;;;;;5069044;28;20454;-70
2022/07/06 09:06:18;;;;;;;4.23;2.90;;;21.30;99.90;;;;;;5069442;28;20469;-69
2022/07/06 09:08:46;;;;;;;3.00;2.80;;;21.40;99.90;;;;;;5068884;28;20945;-71
2022/07/06 09:11:12;;;;;;;3.63;2.90;;;21.50;99.90;;;;;;5068766;28;20458;-71
2022/07/06 09:13:39;;;;;;;3.40;2.87;;;21.60;99.90;;;;;;5068366;28;20465;-71
2022/07/06 09:16:14;;;;;;;3.87;3.10;;;21.60;99.90;;;;;;5068675;28;20478;-72
2022/07/06 09:18:42;;;;;;;3.30;3.00;;;21.70;99.90;;;;;;5068866;28;20485;-71
2022/07/06 09:21:10;;;;;;;8.00;3.03;;;21.70;99.90;;;;;;5068590;28;20885;-69
2022/07/06 09:23:38;;;;;;;4.40;3.00;;;21.70;99.90;;;;;;5057243;28;20463;-69
2022/07/06 09:26:06;;;;;;;4.40;3.37;;;21.70;99.90;;;;;;5051681;28;20513;-69
2022/07/06 09:28:43;;;;;;;5.17;3.30;;;21.80;99.90;;;;;;5052075;28;20549;-69
2022/07/06 09:31:10;;;;;;;3.57;2.90;;;21.90;99.90;;;;;;5051150;28;20842;-71
2022/07/06 09:33:37;;;;;;;3.83;2.80;;;22.10;99.90;;;;;;5052442;28;20466;-71
2022/07/06 09:36:05;;;;;;;3.53;2.53;;;22.10;99.90;;;;;;5052224;28;20483;-71
2022/07/06 09:38:33;;;;;;;2.70;2.40;;;22.20;99.90;;;;;;5050891;28;20484;-71
2022/07/06 09:41:02;;;;;;;5.00;3.20;;;22.20;99.90;;;;;;5051817;28;20467;-71
2022/07/06 09:43:30;;;;;;;3.20;2.47;;;22.40;99.90;;;;;;5052119;28;20470;-71
2022/07/06 09:45:57;;;;;;;5.87;2.77;;;22.50;99.90;;;;;;5051666;28;20491;-71
2022/07/06 09:48:26;;;;;;;8.23;6.43;;;22.60;99.90;;;;;;5052309;28;20939;-70
2022/07/06 09:50:54;;;;;;;5.00;2.90;;;22.70;99.90;;;;;;5051176;28;20464;-70
2022/07/06 09:53:23;;;;;;;2.93;2.70;;;22.80;99.90;;;;;;5052249;28;20463;-71
2022/07/06 09:55:53;;;;;;;3.60;2.87;;;22.80;99.90;;;;;;5051698;28;20484;-72
2022/07/06 09:58:20;;;;;;;3.17;2.87;;;23.00;99.90;;;;;;5052199;28;20487;-71
2022/07/06 10:00:48;;;;;;;5.13;3.03;;;23.10;99.90;;;;;;5059269;28;20968;-70
2022/07/06 10:03:17;;;;;;;4.77;2.67;;;23.10;99.90;;;;;;5072429;28;20461;-71
2022/07/06 10:05:46;;;;;;;3.90;2.90;;;23.20;99.90;;;;;;5072217;28;20897;-71
2022/07/06 10:08:13;;;;;;;4.73;3.50;;;23.30;99.90;;;;;;5072539;28;20483;-72
2022/07/06 10:10:42;;;;;;;3.80;2.80;;;23.40;99.30;;;;;;5071718;28;20462;-71
2022/07/06 10:13:10;;;;;;;3.20;2.90;;;23.40;99.10;;;;;;5072581;28;20450;-71
2022/07/06 10:15:39;;;;;;;2.70;2.50;;;23.50;99.90;;;;;;5071759;28;20858;-71
2022/07/06 10:18:08;;;;;;;4.10;2.90;;;23.50;99.90;;;;;;5072206;28;20487;-71
2022/07/06 10:20:38;;;;;;;4.03;3.40;;;23.50;99.90;;;;;;5072281;28;20469;-71
2022/07/06 10:23:06;;;;;;;3.63;3.33;;;23.60;99.90;;;;;;5069587;28;20458;-70
2022/07/06 10:25:34;;;;;;;4.33;3.67;;;23.80;99.20;;;;;;5071829;28;20479;-70
2022/07/06 10:28:02;;;;;;;5.83;2.90;;;23.90;99.40;;;;;;5071232;28;20840;-69
2022/07/06 10:30:30;;;;;;;4.43;3.27;;;23.90;99.90;;;;;;5071239;28;20459;-71
2022/07/06 10:33:00;;;;;;;4.27;3.07;;;24.10;99.70;;;;;;5071282;28;20481;-70
2022/07/06 10:35:26;;;;;;;4.80;3.20;;;24.20;99.90;;;;;;5070979;28;20496;-71
2022/07/06 10:38:05;;;;;;;3.50;2.97;;;24.20;98.80;;;;;;5071152;28;20482;-71
2022/07/06 10:43:19;;;;;;;3.23;2.93;;;24.00;99.20;;;;;;5071454;28;20762;-71
2022/07/06 10:45:54;;;;;;;3.53;2.83;;;24.00;98.60;;;;;;5070120;28;20517;-71
2022/07/06 10:48:22;;;;;;;4.13;2.93;;;24.10;99.70;;;;;;5065880;28;20486;-71
2022/07/06 10:50:51;;;;;;;5.00;2.90;;;24.10;98.90;;;;;;5050124;28;20927;-71
2022/07/06 10:53:19;;;;;;;3.00;2.60;;;24.10;99.60;;;;;;5051402;28;20467;-72
2022/07/06 10:55:50;;;;;;;4.23;2.87;;;24.30;99.70;;;;;;5050279;28;20490;-71
2022/07/06 10:58:36;;;;;;;3.50;2.93;;;24.40;99.90;;;;;;5069158;28;20502;-70
2022/07/06 11:01:05;;;;;;;4.37;3.23;;;24.40;98.40;;;;;;5070077;28;20466;-70
2022/07/06 11:03:41;;;;;;;3.57;2.60;;;24.20;98.30;;;;;;5069864;28;20850;-72
2022/07/06 11:06:12;;;;;;;2.77;2.50;;;23.90;99.00;;;;;;5070788;28;20852;-71
2022/07/06 11:09:00;;;;;;;5.00;3.07;;;23.70;99.10;;;;;;5070231;28;20460;-72
2022/07/06 11:11:40;;;;;;;3.60;3.10;;;23.70;99.90;;;;;;5069849;28;20546;-72
2022/07/06 11:14:08;;;;;;;5.00;3.40;;;24.00;99.90;;;;;;5070163;28;20484;-72
2022/07/06 11:16:38;;;;;;;5.67;3.40;;;24.30;99.90;;;;;;5069785;28;20455;-72
2022/07/06 11:19:10;;;;;;;3.87;3.30;;;24.40;99.40;;;;;;5069859;28;20489;-70
2022/07/06 11:21:44;;;;;;;3.67;3.27;;;24.40;99.20;;;;;;5070015;28;20520;-70
2022/07/06 11:24:14;;;;;;;5.57;3.30;;;24.60;99.20;;;;;;5070164;28;20481;-72
2022/07/06 11:26:41;;;;;;;5.70;3.30;;;24.70;99.60;;;;;;5069666;28;20953;-70
2022/07/06 11:29:11;;;;;;;3.47;3.17;;;24.90;99.90;;;;;;5069638;28;21101;-72
2022/07/06 11:31:40;;;;;;;5.33;2.80;;;25.10;99.60;;;;;;5069751;28;20542;-71
2022/07/06 11:34:08;;;;;;;4.63;3.27;;;25.20;99.30;;;;;;5070399;28;20481;-70
2022/07/06 11:36:35;;;;;;;6.00;3.23;;;25.20;98.50;;;;;;5069638;28;20458;-72
2022/07/06 11:39:02;;;;;;;4.03;3.60;;;24.90;97.50;;;;;;5069775;28;20490;-71
2022/07/06 11:41:29;;;;;;;3.80;3.33;;;24.70;98.60;;;;;;5068384;28;20462;-71
2022/07/06 11:43:56;;;;;;;6.03;3.40;;;24.70;98.60;;;;;;5069350;28;20505;-72
2022/07/06 11:46:27;;;;;;;3.97;3.00;;;24.70;98.40;;;;;;5069196;28;20462;-71
2022/07/06 11:48:57;;;;;;;5.30;3.13;;;24.80;98.40;;;;;;5069131;28;20988;-70
2022/07/06 11:51:25;;;;;;;3.40;3.10;;;24.60;98.40;;;;;;5069229;28;20459;-71
2022/07/06 11:53:53;;;;;;;4.13;3.20;;;24.30;99.10;;;;;;5069200;28;20980;-71
2022/07/06 11:56:25;;;;;;;3.63;3.30;;;24.20;99.00;;;;;;5069528;28;20465;-71
2022/07/06 11:58:52;;;;;;;4.20;3.20;;;24.30;98.70;;;;;;5069416;28;20490;-70
2022/07/06 12:01:19;;;;;;;6.10;3.30;;;24.50;99.40;;;;;;5069329;28;20488;-71
2022/07/06 12:03:47;;;;;;;3.73;3.37;;;24.70;98.70;;;;;;5068342;28;20470;-71
2022/07/06 12:06:18;;;;;;;3.50;3.20;;;24.90;99.20;;;;;;5069576;28;20456;-72
2022/07/06 12:08:46;;;;;;;5.40;3.73;;;25.00;98.70;;;;;;5069232;28;21249;-72
2022/07/06 12:11:23;;;;;;;4.20;2.80;;;25.10;98.90;;;;;;5069265;28;20963;-70
2022/07/06 12:13:51;;;;;;;3.40;3.10;;;25.20;99.20;;;;;;5069188;28;20463;-71
2022/07/06 12:16:19;;;;;;;3.70;3.10;;;25.40;98.30;;;;;;5069141;28;20557;-72
2022/07/06 12:18:48;;;;;;;4.73;3.40;;;25.40;97.50;;;;;;5068845;28;20898;-70
2022/07/06 12:21:18;;;;;;;5.10;3.37;;;25.40;98.30;;;;;;5069167;28;20461;-72
2022/07/06 12:23:46;;;;;;;4.30;3.00;;;25.10;97.60;;;;;;5069119;28;20469;-71
2022/07/06 12:26:15;;;;;;;4.40;3.70;;;24.90;97.40;;;;;;5068950;28;20466;-71
2022/07/06 12:28:43;;;;;;;4.60;2.93;;;24.50;97.80;;;;;;5068668;28;20465;-71
2022/07/06 12:31:10;;;;;;;4.30;3.60;;;24.30;97.80;;;;;;5068555;28;20962;-72
2022/07/06 12:33:37;;;;;;;4.13;3.60;;;24.00;98.00;;;;;;5069076;28;20462;-70
2022/07/06 12:36:12;;;;;;;3.37;3.07;;;23.80;98.30;;;;;;5052077;28;20479;-72
2022/07/06 12:38:45;;;;;;;3.90;3.60;;;23.70;98.90;;;;;;5049051;28;20486;-71
2022/07/06 12:41:24;;;;;;;5.33;3.27;;;23.90;99.60;;;;;;5048266;28;20862;-71
2022/07/06 12:44:02;;;;;;;5.80;3.40;;;24.20;99.90;;;;;;5049037;28;20463;-71
2022/07/06 12:46:30;;;;;;;5.57;3.17;;;24.30;98.90;;;;;;5049180;28;20807;-71
2022/07/06 12:48:58;;;;;;;4.70;3.40;;;24.20;98.60;;;;;;5048799;28;20805;-72
2022/07/06 12:51:25;;;;;;;4.53;3.37;;;24.00;98.40;;;;;;5049397;28;20538;-72
2022/07/06 12:53:54;;;;;;;4.83;3.93;;;23.60;97.90;;;;;;5048847;28;20507;-70
2022/07/06 12:56:21;;;;;;;11.33;4.10;;;23.30;98.60;;;;;;5049305;28;20470;-72
2022/07/06 12:58:57;;;;;;;5.13;3.20;;;23.10;98.70;;;;;;5051086;28;20848;-72
2022/07/06 13:01:25;;;;;;;5.20;3.10;;;23.00;99.10;;;;;;5052990;28;20465;-72